Terminal Aerodrome Forecast
Issued by NWS

Home | Current Version | Previous Version | Text Only | Print | Product List | Glossary On
Versions: 1 2 3 4 5 6 7 8 9 10 11 12 13 14 15
141
FTUS41 KILN 282347
TAFLCK
TAF
KLCK 282347Z 2900/2924 06005KT P6SM -SHRA OVC070
     FM290100 07006KT 5SM -SHRA VCTS SCT015CB OVC050
      TEMPO 2901/2902 -TSRA BKN025CB
     FM290300 06006KT P6SM -SHRA OVC035
     FM290600 11006KT 3SM -SHRA VCTS OVC025CB
      TEMPO 2908/2910 -TSRA
     FM291500 21010KT P6SM VCSH SCT015 OVC025
     FM291900 08009KT P6SM VCSH BKN035=

USA.gov is the U.S. government's official web portal to all federal, state and local government web resources and services.